createdAt,value
2023-03-25T00:01:37.827Z,6.47
2023-03-25T00:04:06.702Z,6.45
2023-03-25T00:06:35.755Z,7.47
2023-03-25T00:09:06.644Z,7.40
2023-03-25T00:11:35.466Z,7.45
2023-03-25T00:14:04.588Z,7.47
2023-03-25T00:16:33.442Z,6.40
2023-03-25T00:19:02.593Z,6.80
2023-03-25T00:21:33.573Z,7.63
2023-03-25T00:24:02.546Z,7.60
2023-03-25T00:26:35.313Z,6.95
2023-03-25T00:29:04.304Z,6.88
2023-03-25T00:31:32.745Z,6.43
2023-03-25T00:34:01.673Z,8.07
2023-03-25T00:36:30.465Z,6.72
2023-03-25T00:38:59.680Z,7.38
2023-03-25T00:41:28.651Z,7.88
2023-03-25T00:44:00.067Z,7.63
2023-03-25T00:46:30.256Z,7.68
2023-03-25T00:51:31.347Z,7.93
2023-03-25T00:54:01.515Z,7.35
2023-03-25T00:56:31.723Z,8.07
2023-03-25T01:01:31.021Z,8.13
2023-03-25T01:04:00.885Z,8.52
2023-03-25T01:06:33.725Z,9.50
2023-03-25T01:09:07.477Z,9.20
2023-03-25T01:11:38.524Z,9.25
2023-03-25T01:14:13.121Z,9.90
2023-03-25T01:16:41.781Z,8.60
2023-03-25T01:19:11.031Z,8.02
2023-03-25T01:21:40.715Z,9.13
2023-03-25T01:24:13.228Z,8.40
2023-03-25T01:26:43.722Z,9.63
2023-03-25T01:29:16.028Z,8.93
2023-03-25T01:31:44.706Z,9.57
2023-03-25T01:34:13.995Z,9.27
2023-03-25T01:36:46.921Z,9.13
2023-03-25T01:39:18.872Z,9.88
2023-03-25T01:41:50.607Z,9.68
2023-03-25T01:44:57.588Z,9.15
2023-03-25T01:47:27.889Z,9.85
2023-03-25T01:49:56.745Z,11.15
2023-03-25T01:52:27.768Z,9.50
2023-03-25T01:54:57.369Z,10.73
2023-03-25T01:57:26.855Z,10.43
2023-03-25T01:59:56.292Z,9.93
2023-03-25T02:02:36.661Z,9.85
2023-03-25T02:05:10.871Z,11.07
2023-03-25T02:07:42.891Z,11.02
2023-03-25T02:10:13.526Z,10.90
2023-03-25T02:12:42.992Z,10.07
2023-03-25T02:15:14.447Z,10.93
2023-03-25T02:20:38.906Z,10.55
2023-03-25T02:23:43.112Z,11.40
2023-03-25T02:26:56.526Z,11.93
2023-03-25T02:29:34.162Z,10.88
2023-03-25T02:32:17.480Z,10.98
2023-03-25T02:34:56.614Z,11.27
2023-03-25T02:37:49.124Z,11.13
2023-03-25T02:40:26.822Z,12.30
2023-03-25T02:43:01.605Z,11.63
2023-03-25T02:45:33.425Z,11.85
2023-03-25T02:48:05.177Z,11.05
2023-03-25T02:50:36.803Z,13.02
2023-03-25T02:53:11.027Z,12.18
2023-03-25T02:55:42.529Z,10.90
2023-03-25T02:58:14.767Z,12.13
2023-03-25T03:00:44.006Z,12.00
2023-03-25T03:03:13.501Z,13.13
2023-03-25T03:05:44.735Z,10.85
2023-03-25T03:08:32.548Z,11.82
2023-03-25T03:11:06.950Z,11.48
2023-03-25T03:13:47.067Z,12.15
2023-03-25T03:16:22.014Z,12.00
2023-03-25T03:18:58.938Z,12.45
2023-03-25T03:21:33.800Z,12.52
2023-03-25T03:24:08.245Z,12.90
2023-03-25T03:26:40.341Z,12.52
2023-03-25T03:29:13.601Z,12.77
2023-03-25T03:31:56.604Z,14.70
2023-03-25T03:34:45.034Z,13.02
2023-03-25T03:37:16.362Z,12.97
2023-03-25T03:39:48.937Z,13.23
2023-03-25T03:42:21.147Z,12.85
2023-03-25T03:44:53.312Z,13.80
2023-03-25T03:47:26.343Z,13.75
2023-03-25T03:49:57.450Z,14.52
2023-03-25T03:52:29.396Z,14.20
2023-03-25T03:55:02.151Z,14.80
2023-03-25T03:57:34.560Z,14.85
2023-03-25T04:00:07.156Z,15.32
2023-03-25T04:02:44.131Z,15.00
2023-03-25T04:05:14.352Z,14.98
2023-03-25T04:07:45.814Z,15.98
2023-03-25T04:10:21.150Z,15.95
2023-03-25T04:12:52.487Z,15.38
2023-03-25T04:15:21.672Z,16.80
2023-03-25T04:17:51.111Z,15.82
2023-03-25T04:20:24.879Z,15.32
2023-03-25T04:22:53.822Z,16.65
2023-03-25T04:25:25.345Z,17.55
2023-03-25T04:27:59.104Z,17.95
2023-03-25T04:30:29.566Z,16.40
2023-03-25T04:35:27.419Z,16.73
2023-03-25T04:37:57.404Z,17.92
2023-03-25T04:40:27.960Z,17.77
2023-03-25T04:45:28.960Z,17.42
2023-03-25T04:47:58.155Z,18.98
2023-03-25T04:50:28.882Z,18.10
2023-03-25T04:55:29.989Z,17.80
2023-03-25T04:57:58.977Z,17.95
2023-03-25T05:00:28.283Z,17.80
2023-03-25T05:03:02.051Z,18.70
2023-03-25T05:05:31.465Z,17.52
2023-03-25T05:08:01.614Z,17.80
2023-03-25T05:10:31.590Z,16.77
2023-03-25T05:15:32.696Z,17.70
2023-03-25T05:18:02.133Z,17.35
2023-03-25T05:20:33.125Z,17.95
2023-03-25T05:23:02.081Z,21.10
2023-03-25T05:25:34.588Z,25.15
2023-03-25T05:28:06.003Z,29.45
2023-03-25T05:30:39.307Z,38.22
2023-03-25T05:33:08.449Z,40.08
2023-03-25T05:35:37.920Z,35.60
2023-03-25T05:38:08.253Z,33.27
2023-03-25T05:40:38.214Z,33.25
2023-03-25T05:45:36.651Z,28.88
2023-03-25T05:48:06.178Z,29.10
2023-03-25T05:50:35.136Z,27.33
2023-03-25T05:53:04.192Z,26.75
2023-03-25T05:55:33.555Z,27.13
2023-03-25T05:58:09.213Z,24.60
2023-03-25T06:00:38.933Z,23.95
2023-03-25T06:03:08.732Z,23.30
2023-03-25T06:05:40.375Z,21.70
2023-03-25T06:08:09.646Z,22.10
2023-03-25T06:10:38.453Z,21.67
2023-03-25T06:13:08.821Z,17.98
2023-03-25T06:18:10.686Z,15.35
2023-03-25T06:20:39.624Z,16.77
2023-03-25T06:23:10.055Z,16.80
2023-03-25T06:25:38.596Z,16.00
2023-03-25T06:28:08.866Z,16.35
2023-03-25T06:33:06.335Z,15.57
2023-03-25T06:35:35.330Z,15.90
2023-03-25T06:38:04.219Z,15.18
2023-03-25T06:40:43.666Z,16.75
2023-03-25T06:43:14.983Z,15.20
2023-03-25T06:45:57.726Z,16.58
2023-03-25T06:48:37.697Z,16.25
2023-03-25T06:51:07.083Z,16.33
2023-03-25T06:53:35.916Z,16.23
2023-03-25T06:56:04.926Z,15.93
2023-03-25T06:58:35.771Z,18.42
2023-03-25T07:01:07.731Z,17.98
2023-03-25T07:03:37.750Z,16.65
2023-03-25T07:06:07.747Z,14.32
2023-03-25T07:08:36.566Z,14.13
2023-03-25T07:11:07.468Z,12.77
2023-03-25T07:13:37.464Z,12.23
2023-03-25T07:16:07.056Z,13.43
2023-03-25T07:18:35.982Z,12.52
2023-03-25T07:21:05.153Z,12.05
2023-03-25T07:23:34.061Z,11.13
2023-03-25T07:26:02.944Z,11.13
2023-03-25T07:28:31.462Z,9.35
2023-03-25T07:31:01.856Z,10.15
2023-03-25T07:33:30.849Z,9.63
2023-03-25T07:35:59.901Z,9.30
2023-03-25T07:38:28.798Z,10.43
2023-03-25T07:40:57.744Z,9.52
2023-03-25T07:43:26.568Z,9.90
2023-03-25T07:45:57.985Z,9.48
2023-03-25T07:48:31.581Z,9.85
2023-03-25T07:51:00.461Z,9.65
2023-03-25T07:53:29.328Z,9.02
2023-03-25T07:55:58.102Z,9.82
2023-03-25T07:58:26.631Z,9.52
2023-03-25T08:00:58.215Z,9.50
2023-03-25T08:03:28.104Z,8.65
2023-03-25T08:06:02.024Z,7.85
2023-03-25T08:08:31.488Z,8.27
2023-03-25T08:11:00.647Z,8.38
2023-03-25T08:13:29.335Z,8.10
2023-03-25T08:15:58.585Z,9.02
2023-03-25T08:18:27.637Z,8.27
2023-03-25T08:20:56.719Z,8.50
2023-03-25T08:23:26.988Z,6.97
2023-03-25T08:25:56.570Z,6.70
2023-03-25T08:28:27.071Z,6.65
2023-03-25T08:30:56.080Z,6.07
2023-03-25T08:33:27.767Z,6.28
2023-03-25T08:35:58.733Z,6.43
2023-03-25T08:38:33.887Z,6.38
2023-03-25T08:41:03.464Z,5.05
2023-03-25T08:43:32.564Z,5.47
2023-03-25T08:46:01.534Z,5.93
2023-03-25T08:48:30.477Z,6.47
2023-03-25T08:50:59.518Z,6.00
2023-03-25T08:53:29.910Z,5.90
2023-03-25T08:55:59.691Z,6.65
2023-03-25T08:58:28.625Z,6.32
2023-03-25T09:00:57.692Z,5.65
2023-03-25T09:03:28.217Z,5.20
2023-03-25T09:05:57.084Z,4.95
2023-03-25T09:08:26.317Z,4.40
2023-03-25T09:10:57.959Z,4.70
2023-03-25T09:13:26.909Z,5.53
2023-03-25T09:15:55.852Z,4.88
2023-03-25T09:18:24.717Z,5.03
2023-03-25T09:20:53.637Z,5.20
2023-03-25T09:23:22.509Z,5.72
2023-03-25T09:25:51.194Z,5.70
2023-03-25T09:28:21.968Z,6.33
2023-03-25T09:30:50.849Z,5.05
2023-03-25T09:33:19.840Z,5.15
2023-03-25T09:35:48.836Z,4.65
2023-03-25T09:38:18.113Z,5.57
2023-03-25T09:40:46.981Z,5.00
2023-03-25T09:43:26.841Z,5.75
2023-03-25T09:45:56.884Z,4.75
2023-03-25T09:48:29.939Z,4.65
2023-03-25T09:51:03.065Z,5.13
2023-03-25T09:53:37.677Z,5.55
2023-03-25T09:56:11.771Z,6.00
2023-03-25T09:58:45.083Z,5.60
2023-03-25T10:01:27.217Z,6.20
2023-03-25T10:04:04.679Z,6.53
2023-03-25T10:06:34.213Z,4.78
2023-03-25T10:09:13.788Z,5.53
2023-03-25T10:11:48.975Z,6.35
2023-03-25T10:14:21.756Z,5.82
2023-03-25T10:17:04.954Z,6.13
2023-03-25T10:19:44.532Z,5.20
2023-03-25T10:22:18.521Z,4.78
2023-03-25T10:24:50.313Z,4.95
2023-03-25T10:27:24.180Z,3.80
2023-03-25T10:29:57.015Z,3.50
2023-03-25T10:32:33.208Z,3.90
2023-03-25T10:35:04.066Z,4.18
2023-03-25T10:37:35.773Z,3.47
2023-03-25T10:40:16.727Z,2.72
2023-03-25T10:42:55.625Z,2.63
2023-03-25T10:45:26.350Z,2.88
2023-03-25T10:47:56.645Z,3.33
2023-03-25T10:50:26.330Z,3.30
2023-03-25T10:52:56.837Z,3.40
2023-03-25T10:55:28.486Z,3.17
2023-03-25T10:57:57.977Z,3.05
2023-03-25T11:00:30.419Z,3.30
2023-03-25T11:02:59.362Z,3.30
2023-03-25T11:05:30.692Z,4.07
2023-03-25T11:08:06.645Z,3.03
2023-03-25T11:10:38.111Z,3.22
2023-03-25T11:13:15.157Z,3.20
2023-03-25T11:15:45.624Z,3.55
2023-03-25T11:18:20.854Z,2.88
2023-03-25T11:20:51.617Z,3.20
2023-03-25T11:23:26.385Z,2.90
2023-03-25T11:25:55.920Z,2.92
2023-03-25T11:28:33.023Z,2.85
2023-03-25T11:31:15.297Z,3.03
2023-03-25T11:33:46.143Z,3.00
2023-03-25T11:36:27.355Z,3.40
2023-03-25T11:39:01.317Z,2.80
2023-03-25T11:41:32.192Z,3.00
2023-03-25T11:44:02.411Z,2.67
2023-03-25T11:46:32.864Z,3.25
2023-03-25T11:49:12.094Z,3.42
2023-03-25T11:51:41.223Z,2.80
2023-03-25T11:54:13.454Z,3.00
2023-03-25T11:56:45.064Z,3.45
2023-03-25T11:59:23.707Z,3.10
2023-03-25T12:02:02.839Z,3.10
2023-03-25T12:04:32.757Z,3.97
2023-03-25T12:07:03.107Z,3.72
2023-03-25T12:09:33.377Z,3.65
2023-03-25T12:12:18.361Z,3.92
2023-03-25T12:14:54.829Z,3.20
2023-03-25T12:17:34.058Z,3.15
2023-03-25T12:20:11.560Z,3.58
2023-03-25T12:22:52.897Z,3.20
2023-03-25T12:25:28.804Z,3.25
2023-03-25T12:28:12.767Z,3.45
2023-03-25T12:30:50.191Z,3.42
2023-03-25T12:33:34.954Z,3.60
2023-03-25T12:36:25.366Z,3.00
2023-03-25T12:41:33.201Z,2.85
2023-03-25T12:44:05.330Z,3.50
2023-03-25T12:46:55.076Z,4.45
2023-03-25T12:49:36.770Z,4.10
2023-03-25T12:52:10.606Z,3.95
2023-03-25T12:54:56.632Z,2.97
2023-03-25T12:57:39.350Z,3.55
2023-03-25T13:00:34.534Z,3.85
2023-03-25T13:03:21.615Z,3.95
2023-03-25T13:05:56.529Z,4.07
2023-03-25T13:08:29.506Z,3.72
2023-03-25T13:11:01.258Z,2.80
2023-03-25T13:13:31.622Z,3.28
2023-03-25T13:18:36.902Z,4.15
2023-03-25T13:21:14.081Z,4.55
2023-03-25T13:23:44.153Z,5.72
2023-03-25T13:26:14.548Z,5.80
2023-03-25T13:28:46.940Z,5.60
2023-03-25T13:31:18.606Z,5.22
2023-03-25T13:33:51.699Z,6.13
2023-03-25T13:36:28.021Z,5.05
2023-03-25T13:38:59.127Z,5.53
2023-03-25T13:41:31.575Z,6.00
2023-03-25T13:44:05.737Z,6.15
2023-03-25T13:46:38.325Z,4.97
2023-03-25T13:49:13.988Z,4.90
2023-03-25T13:51:44.497Z,5.35
2023-03-25T13:57:21.159Z,5.40
2023-03-25T14:00:10.183Z,4.53
2023-03-25T14:02:57.195Z,4.85
2023-03-25T14:05:53.806Z,5.68
2023-03-25T14:08:48.859Z,4.85
2023-03-25T14:11:23.052Z,4.88
2023-03-25T14:13:55.509Z,4.45
2023-03-25T14:16:27.469Z,4.40
2023-03-25T14:19:00.660Z,5.00
2023-03-25T14:21:35.847Z,4.72
2023-03-25T14:24:08.985Z,4.72
2023-03-25T14:26:43.853Z,5.00
2023-03-25T14:29:22.029Z,4.32
2023-03-25T14:32:05.359Z,3.85
2023-03-25T14:34:34.319Z,3.80
2023-03-25T14:37:29.659Z,3.67
2023-03-25T14:40:06.639Z,3.55
2023-03-25T14:42:43.521Z,3.08
2023-03-25T14:45:42.358Z,3.22
2023-03-25T14:48:26.508Z,3.10
2023-03-25T14:51:17.875Z,1.77
2023-03-25T14:53:53.123Z,2.20
2023-03-25T14:56:25.758Z,1.10
2023-03-25T14:58:55.364Z,1.20
2023-03-25T15:01:30.242Z,1.40
2023-03-25T15:04:11.887Z,1.05
2023-03-25T15:06:40.857Z,1.05
2023-03-25T15:09:13.142Z,1.20
2023-03-25T15:11:45.268Z,1.40
2023-03-25T15:14:17.447Z,1.35
2023-03-25T15:17:05.588Z,1.15
2023-03-25T15:20:10.579Z,1.60
2023-03-25T15:22:39.717Z,1.20
2023-03-25T15:25:14.588Z,1.40
2023-03-25T15:27:56.871Z,2.03
2023-03-25T15:30:57.458Z,2.50
2023-03-25T15:36:29.437Z,3.70
2023-03-25T15:39:12.876Z,4.40
2023-03-25T15:42:03.063Z,3.03
2023-03-25T15:44:51.999Z,2.53
2023-03-25T15:47:32.292Z,2.65
2023-03-25T15:50:20.118Z,2.17
2023-03-25T15:53:43.012Z,2.00
2023-03-25T15:56:14.008Z,1.95
2023-03-25T15:58:48.774Z,2.25
2023-03-25T16:01:23.036Z,2.28
2023-03-25T16:03:59.057Z,2.17
2023-03-25T16:06:28.645Z,2.40
2023-03-25T16:08:59.607Z,2.70
2023-03-25T16:11:29.722Z,2.83
2023-03-25T16:14:06.737Z,3.10
2023-03-25T16:16:38.545Z,2.78
2023-03-25T16:19:11.665Z,3.00
2023-03-25T16:21:41.315Z,2.70
2023-03-25T16:24:13.803Z,4.20
2023-03-25T16:26:44.247Z,4.53
2023-03-25T16:31:56.558Z,4.20
2023-03-25T16:34:26.296Z,4.00
2023-03-25T16:36:56.136Z,4.20
2023-03-25T16:39:26.290Z,4.47
2023-03-25T16:42:02.798Z,3.80
2023-03-25T16:44:31.871Z,4.18
2023-03-25T16:47:02.503Z,3.80
2023-03-25T16:52:03.548Z,4.53
2023-03-25T16:54:37.935Z,4.65
2023-03-25T16:57:09.174Z,4.80
2023-03-25T16:59:39.047Z,5.80
2023-03-25T17:02:25.362Z,5.55
2023-03-25T17:04:58.095Z,5.43
2023-03-25T17:07:29.788Z,5.53
2023-03-25T17:10:00.792Z,5.90
2023-03-25T17:12:30.823Z,6.55
2023-03-25T17:15:06.925Z,5.78
2023-03-25T17:17:41.633Z,6.35
2023-03-25T17:20:18.107Z,5.75
2023-03-25T17:22:59.483Z,7.28
2023-03-25T17:25:32.359Z,8.50
2023-03-25T17:28:08.660Z,10.18
2023-03-25T17:30:43.572Z,9.38
2023-03-25T17:33:16.776Z,10.30
2023-03-25T17:35:46.899Z,11.05
2023-03-25T17:38:22.790Z,11.52
2023-03-25T17:40:59.759Z,12.05
2023-03-25T17:43:29.341Z,11.60
2023-03-25T17:45:58.291Z,11.57
2023-03-25T17:48:28.679Z,11.52
2023-03-25T17:53:27.008Z,10.27
2023-03-25T17:55:55.762Z,8.82
2023-03-25T17:58:24.572Z,11.07
2023-03-25T18:00:53.511Z,11.52
2023-03-25T18:03:25.389Z,10.98
2023-03-25T18:05:55.902Z,10.45
2023-03-25T18:08:25.958Z,12.80
2023-03-25T18:10:55.563Z,13.43
2023-03-25T18:13:25.229Z,13.43
2023-03-25T18:15:55.004Z,13.63
2023-03-25T18:18:25.610Z,13.40
2023-03-25T18:20:57.183Z,12.75
2023-03-25T18:23:26.097Z,13.77
2023-03-25T18:25:54.577Z,14.55
2023-03-25T18:28:24.960Z,14.57
2023-03-25T18:30:55.348Z,15.75
2023-03-25T18:33:24.871Z,13.27
2023-03-25T18:35:56.490Z,12.35
2023-03-25T18:38:27.649Z,10.73
2023-03-25T18:40:57.121Z,10.98
2023-03-25T18:43:26.064Z,10.65
2023-03-25T18:45:55.009Z,10.65
2023-03-25T18:48:24.135Z,8.90
2023-03-25T18:50:56.126Z,9.25
2023-03-25T18:53:27.452Z,7.28
2023-03-25T18:55:56.657Z,6.72
2023-03-25T18:58:27.334Z,5.87
2023-03-25T19:00:56.516Z,6.53
2023-03-25T19:03:30.629Z,5.28
2023-03-25T19:06:02.860Z,5.63
2023-03-25T19:08:31.696Z,7.00
2023-03-25T19:11:08.397Z,6.93
2023-03-25T19:13:48.113Z,6.70
2023-03-25T19:16:17.067Z,7.50
2023-03-25T19:18:47.469Z,4.70
2023-03-25T19:21:19.248Z,5.00
2023-03-25T19:23:48.456Z,4.07
2023-03-25T19:26:17.332Z,4.93
2023-03-25T19:28:46.449Z,4.18
2023-03-25T19:31:16.832Z,4.43
2023-03-25T19:33:46.214Z,5.32
2023-03-25T19:36:15.650Z,6.25
2023-03-25T19:38:46.259Z,7.70
2023-03-25T19:41:16.827Z,12.80
2023-03-25T19:43:45.402Z,15.85
2023-03-25T19:46:14.280Z,17.33
2023-03-25T19:48:43.341Z,13.35
2023-03-25T19:51:12.062Z,11.05
2023-03-25T19:53:40.860Z,8.43
2023-03-25T19:56:14.131Z,7.35
2023-03-25T19:58:42.638Z,6.18
2023-03-25T20:01:11.457Z,7.00
2023-03-25T20:03:41.324Z,5.32
2023-03-25T20:06:10.684Z,5.15
2023-03-25T20:08:39.508Z,5.82
2023-03-25T20:11:13.184Z,4.35
2023-03-25T20:13:41.665Z,5.35
2023-03-25T20:16:11.076Z,4.80
2023-03-25T20:18:41.458Z,5.07
2023-03-25T20:23:39.224Z,5.95
2023-03-25T20:26:08.271Z,5.65
2023-03-25T20:28:38.497Z,7.80
2023-03-25T20:31:18.563Z,6.45
2023-03-25T20:33:48.296Z,8.00
2023-03-25T20:36:17.115Z,8.17
2023-03-25T20:38:56.698Z,6.97
2023-03-25T20:43:56.309Z,7.38
2023-03-25T20:46:28.549Z,9.88
2023-03-25T20:48:57.996Z,7.97
2023-03-25T20:51:27.023Z,8.10
2023-03-25T20:53:57.072Z,7.43
2023-03-25T20:56:26.047Z,8.60
2023-03-25T20:58:55.941Z,7.18
2023-03-25T21:03:53.475Z,7.68
2023-03-25T21:06:24.827Z,7.68
2023-03-25T21:08:56.005Z,7.85
2023-03-25T21:11:25.054Z,9.27
2023-03-25T21:13:53.487Z,9.23
2023-03-25T21:16:23.820Z,9.75
2023-03-25T21:18:53.713Z,9.35
2023-03-25T21:21:24.330Z,10.77
2023-03-25T21:23:53.379Z,10.80
2023-03-25T21:26:26.017Z,10.70
2023-03-25T21:28:54.425Z,9.93
2023-03-25T21:31:24.801Z,11.13
2023-03-25T21:33:56.311Z,9.73
2023-03-25T21:36:27.252Z,11.65
2023-03-25T21:38:57.078Z,12.98
2023-03-25T21:41:26.144Z,14.43
2023-03-25T21:43:55.419Z,14.10
2023-03-25T21:46:27.303Z,10.40
2023-03-25T21:48:58.659Z,14.43
2023-03-25T21:51:30.704Z,14.20
2023-03-25T21:54:00.838Z,15.13
2023-03-25T21:56:33.535Z,14.55
2023-03-25T21:59:04.690Z,14.00
2023-03-25T22:01:35.931Z,13.60
2023-03-25T22:04:05.090Z,14.63
2023-03-25T22:06:35.762Z,12.68
2023-03-25T22:09:06.609Z,14.93
2023-03-25T22:11:37.618Z,15.10
2023-03-25T22:14:07.112Z,14.30
2023-03-25T22:16:37.314Z,13.88
2023-03-25T22:19:06.732Z,13.05
2023-03-25T22:21:38.182Z,13.30
2023-03-25T22:24:08.627Z,12.98
2023-03-25T22:26:39.411Z,12.93
2023-03-25T22:29:09.976Z,12.00
2023-03-25T22:34:15.471Z,11.20
2023-03-25T22:36:50.177Z,11.65
2023-03-25T22:39:20.680Z,12.07
2023-03-25T22:41:49.661Z,12.30
2023-03-25T22:44:18.506Z,11.82
2023-03-25T22:46:48.897Z,12.85
2023-03-25T22:49:18.056Z,13.32
2023-03-25T22:51:47.048Z,14.60
2023-03-25T22:54:16.258Z,15.13
2023-03-25T22:56:45.481Z,15.25
2023-03-25T22:59:15.480Z,16.35
2023-03-25T23:01:44.196Z,16.83
2023-03-25T23:04:14.448Z,14.88
2023-03-25T23:06:46.949Z,16.00
2023-03-25T23:09:40.076Z,16.05
2023-03-25T23:12:11.118Z,13.48
2023-03-25T23:14:40.724Z,15.27
2023-03-25T23:17:10.386Z,13.45
2023-03-25T23:19:40.445Z,14.18
2023-03-25T23:22:09.629Z,13.38
2023-03-25T23:24:39.236Z,12.50
2023-03-25T23:27:09.455Z,12.13
2023-03-25T23:32:09.608Z,10.57
2023-03-25T23:34:40.403Z,10.52
2023-03-25T23:37:10.364Z,11.23
2023-03-25T23:39:40.596Z,10.82
2023-03-25T23:44:38.429Z,10.65
2023-03-25T23:47:07.380Z,11.60
2023-03-25T23:49:38.486Z,12.60
2023-03-25T23:52:11.465Z,13.68
2023-03-25T23:54:41.278Z,13.32
2023-03-25T23:57:10.180Z,11.20
2023-03-25T23:59:38.967Z,12.30
